RYR496E LEZL-GCFV
Flight info
| Callsign | RYR496E |
|---|---|
| Flight time | N/A |
| Altitude | 37000 |
| Route | CLANA N857 KORNO UN857 TERTO |
| Aircraft | B38M/M-SDE1FGHILORVWXY/HB1 |
Departure
| Time | N/A |
|---|---|
| Airport | Seville Airport (LEZL) |
Arrival
| Time | 2026-05-08 14:56 |
|---|---|
| Airport | Fuerteventura Airport (GCFV) |
| Time | Latitude | Longitude | Altitude | Speed | Heading |
|---|---|---|---|---|---|
| 2026-05-08 14:40 | 28.55585 | -13.44840 | 9728 ft | 242 kts | 200° |
| 2026-05-08 14:40 | 28.53986 | -13.45415 | 9446 ft | 240 kts | 200° |
| 2026-05-08 14:41 | 28.52400 | -13.45987 | 9165 ft | 237 kts | 200° |
| 2026-05-08 14:41 | 28.50870 | -13.46616 | 8879 ft | 233 kts | 213° |
| 2026-05-08 14:41 | 28.49655 | -13.47822 | 8775 ft | 235 kts | 227° |
| 2026-05-08 14:41 | 28.48498 | -13.49169 | 8684 ft | 240 kts | 227° |
| 2026-05-08 14:42 | 28.47332 | -13.50547 | 8565 ft | 242 kts | 228° |
| 2026-05-08 14:42 | 28.46174 | -13.51928 | 8432 ft | 242 kts | 228° |
| 2026-05-08 14:42 | 28.45019 | -13.53313 | 8314 ft | 241 kts | 228° |
| 2026-05-08 14:42 | 28.43869 | -13.54702 | 8193 ft | 241 kts | 228° |
| 2026-05-08 14:43 | 28.42722 | -13.56090 | 8067 ft | 241 kts | 228° |
| 2026-05-08 14:43 | 28.41606 | -13.57503 | 7921 ft | 240 kts | 237° |
| 2026-05-08 14:43 | 28.40997 | -13.59232 | 7736 ft | 236 kts | 257° |
| 2026-05-08 14:43 | 28.40584 | -13.61044 | 7590 ft | 237 kts | 256° |
| 2026-05-08 14:44 | 28.40172 | -13.62851 | 7438 ft | 237 kts | 256° |
| 2026-05-08 14:44 | 28.39766 | -13.64664 | 7294 ft | 236 kts | 256° |
| 2026-05-08 14:44 | 28.39500 | -13.65860 | 7193 ft | 236 kts | 256° |
| 2026-05-08 14:44 | 28.39101 | -13.67669 | 7053 ft | 236 kts | 257° |
| 2026-05-08 14:45 | 28.39022 | -13.70086 | 6833 ft | 233 kts | 287° |
| 2026-05-08 14:45 | 28.39518 | -13.71190 | 6740 ft | 234 kts | 307° |
| 2026-05-08 14:45 | 28.40780 | -13.72346 | 6630 ft | 237 kts | 333° |
| 2026-05-08 14:45 | 28.42945 | -13.72745 | 6465 ft | 243 kts | 357° |
| 2026-05-08 14:46 | 28.44083 | -13.72745 | 6385 ft | 243 kts | 357° |
| 2026-05-08 14:46 | 28.45772 | -13.72739 | 6234 ft | 242 kts | 357° |
| 2026-05-08 14:46 | 28.47452 | -13.72725 | 6081 ft | 241 kts | 358° |
| 2026-05-08 14:46 | 28.49129 | -13.72704 | 5942 ft | 241 kts | 358° |
| 2026-05-08 14:47 | 28.50798 | -13.72680 | 5818 ft | 239 kts | 358° |
| 2026-05-08 14:47 | 28.52463 | -13.72654 | 5675 ft | 238 kts | 358° |
| 2026-05-08 14:47 | 28.54073 | -13.72626 | 5539 ft | 231 kts | 358° |
| 2026-05-08 14:47 | 28.55646 | -13.72598 | 5455 ft | 221 kts | 358° |
| 2026-05-08 14:48 | 28.57184 | -13.72571 | 5341 ft | 221 kts | 358° |
| 2026-05-08 14:48 | 28.58739 | -13.72543 | 5201 ft | 221 kts | 358° |
| 2026-05-08 14:48 | 28.60255 | -13.72516 | 5070 ft | 221 kts | 358° |
| 2026-05-08 14:48 | 28.61791 | -13.72489 | 4945 ft | 220 kts | 358° |
| 2026-05-08 14:49 | 28.63323 | -13.72471 | 4826 ft | 219 kts | 354° |
| 2026-05-08 14:49 | 28.64738 | -13.72990 | 4634 ft | 213 kts | 322° |
| 2026-05-08 14:49 | 28.65740 | -13.74209 | 4521 ft | 211 kts | 305° |
| 2026-05-08 14:49 | 28.66598 | -13.75571 | 4416 ft | 211 kts | 304° |
| 2026-05-08 14:50 | 28.67422 | -13.76923 | 4275 ft | 204 kts | 303° |
| 2026-05-08 14:50 | 28.67941 | -13.78375 | 4113 ft | 196 kts | 275° |
| 2026-05-08 14:50 | 28.67912 | -13.79889 | 3999 ft | 187 kts | 267° |
| 2026-05-08 14:50 | 28.67830 | -13.81362 | 3910 ft | 188 kts | 266° |
| 2026-05-08 14:51 | 28.67733 | -13.82846 | 3829 ft | 188 kts | 266° |
| 2026-05-08 14:51 | 28.67419 | -13.84284 | 3674 ft | 189 kts | 240° |
| 2026-05-08 14:51 | 28.66459 | -13.85295 | 3524 ft | 192 kts | 207° |
| 2026-05-08 14:51 | 28.65156 | -13.85672 | 3461 ft | 196 kts | 189° |
| 2026-05-08 14:52 | 28.63788 | -13.85769 | 3365 ft | 197 kts | 184° |
| 2026-05-08 14:52 | 28.61092 | -13.85854 | 3140 ft | 186 kts | 184° |
| 2026-05-08 14:52 | 28.59834 | -13.85894 | 3012 ft | 175 kts | 184° |
| 2026-05-08 14:53 | 28.58673 | -13.85933 | 2911 ft | 167 kts | 184° |
| 2026-05-08 14:53 | 28.57496 | -13.85973 | 2697 ft | 171 kts | 184° |
| 2026-05-08 14:53 | 28.56293 | -13.86011 | 2449 ft | 173 kts | 183° |
| 2026-05-08 14:53 | 28.55094 | -13.86052 | 2199 ft | 171 kts | 182° |
| 2026-05-08 14:54 | 28.53945 | -13.86089 | 1945 ft | 158 kts | 182° |
| 2026-05-08 14:54 | 28.52889 | -13.86126 | 1701 ft | 146 kts | 181° |
| 2026-05-08 14:54 | 28.51890 | -13.86160 | 1484 ft | 142 kts | 179° |
| 2026-05-08 14:54 | 28.50924 | -13.86194 | 1279 ft | 137 kts | 179° |
| 2026-05-08 14:55 | 28.49964 | -13.86243 | 1083 ft | 139 kts | 180° |
| 2026-05-08 14:55 | 28.49004 | -13.86255 | 895 ft | 137 kts | 177° |
| 2026-05-08 14:55 | 28.48057 | -13.86293 | 596 ft | 136 kts | 179° |
| 2026-05-08 14:55 | 28.47097 | -13.86312 | 375 ft | 138 kts | 177° |
| 2026-05-08 14:56 | 28.46144 | -13.86349 | 182 ft | 136 kts | 179° |
| 2026-05-08 14:56 | 28.45228 | -13.86373 | 74 ft | 123 kts | 182° |
| 2026-05-08 14:56 | 28.44579 | -13.86397 | 54 ft | 60 kts | 182° |
| 2026-05-08 14:56 | 28.44256 | -13.86409 | 50 ft | 45 kts | 181° |
| 2026-05-08 14:57 | 28.43939 | -13.86420 | 40 ft | 43 kts | 182° |
| 2026-05-08 14:57 | 28.43661 | -13.86462 | 33 ft | 38 kts | 200° |
| 2026-05-08 14:57 | 28.43500 | -13.86597 | 31 ft | 21 kts | 269° |
| 2026-05-08 14:57 | 28.43567 | -13.86624 | 33 ft | 10 kts | 1° |
| 2026-05-08 14:58 | 28.43643 | -13.86622 | 35 ft | 12 kts | 1° |
| 2026-05-08 14:58 | 28.43729 | -13.86619 | 37 ft | 13 kts | 2° |
| 2026-05-08 14:58 | 28.43823 | -13.86616 | 39 ft | 14 kts | 2° |
| 2026-05-08 14:58 | 28.43923 | -13.86613 | 42 ft | 15 kts | 1° |
| 2026-05-08 14:59 | 28.44032 | -13.86610 | 45 ft | 16 kts | 1° |
| 2026-05-08 14:59 | 28.44269 | -13.86603 | 51 ft | 18 kts | 1° |
| 2026-05-08 14:59 | 28.44397 | -13.86597 | 54 ft | 19 kts | 3° |
| 2026-05-08 15:00 | 28.44530 | -13.86588 | 58 ft | 19 kts | 4° |
| 2026-05-08 15:00 | 28.44667 | -13.86587 | 62 ft | 20 kts | 1° |
| 2026-05-08 15:00 | 28.44795 | -13.86584 | 65 ft | 11 kts | 1° |
| 2026-05-08 15:00 | 28.44854 | -13.86614 | 67 ft | 10 kts | 296° |
| 2026-05-08 15:01 | 28.44861 | -13.86701 | 58 ft | 13 kts | 272° |
| 2026-05-08 15:01 | 28.44922 | -13.86749 | 61 ft | 12 kts | 0° |
| 2026-05-08 15:01 | 28.45011 | -13.86748 | 64 ft | 13 kts | 360° |
| 2026-05-08 15:01 | 28.45108 | -13.86747 | 65 ft | 14 kts | 2° |
| 2026-05-08 15:02 | 28.45180 | -13.86742 | 75 ft | 8 kts | 3° |
| 2026-05-08 15:02 | 28.45219 | -13.86759 | 68 ft | 6 kts | 303° |
| 2026-05-08 15:02 | 28.45222 | -13.86796 | 69 ft | 6 kts | 271° |
| 2026-05-08 15:02 | 28.45222 | -13.86829 | 69 ft | 3 kts | 270° |
| 2026-05-08 15:03 | 28.45222 | -13.86838 | 76 ft | 0 kts | 270° |